createdAt,value
2023-01-17T00:14:06.782Z,2.70
2023-01-17T00:29:11.887Z,2.21
2023-01-17T00:44:34.253Z,1.95
2023-01-17T00:59:57.342Z,5.14
2023-01-17T01:15:19.573Z,8.28
2023-01-17T01:30:43.001Z,9.05
2023-01-17T01:46:04.598Z,6.59
2023-01-17T02:01:09.954Z,3.37
2023-01-17T02:16:32.323Z,2.71
2023-01-17T02:31:48.152Z,5.93
2023-01-17T02:46:53.126Z,9.22
2023-01-17T03:02:17.969Z,9.73
2023-01-17T03:17:22.104Z,6.02
2023-01-17T03:32:43.894Z,4.30
2023-01-17T03:48:05.194Z,6.53
2023-01-17T04:03:26.500Z,8.00
2023-01-17T04:18:48.289Z,5.31
2023-01-17T04:33:52.453Z,7.71
2023-01-17T04:48:56.115Z,6.41
2023-01-17T05:04:00.853Z,6.28
2023-01-17T05:19:04.668Z,6.88
2023-01-17T05:34:09.535Z,6.57
2023-01-17T05:49:13.511Z,5.99
2023-01-17T06:04:18.446Z,6.63
2023-01-17T06:19:22.198Z,6.50
2023-01-17T06:34:26.747Z,6.00
2023-01-17T06:49:30.583Z,5.85
2023-01-17T07:04:35.302Z,6.20
2023-01-17T07:19:39.133Z,5.98
2023-01-17T07:34:44.103Z,5.82
2023-01-17T07:49:47.824Z,5.93
2023-01-17T08:04:52.464Z,6.31
2023-01-17T08:19:56.362Z,6.04
2023-01-17T08:35:01.458Z,5.45
2023-01-17T08:50:07.148Z,6.34
2023-01-17T09:05:14.010Z,5.68
2023-01-17T09:20:18.011Z,5.33
2023-01-17T09:35:23.176Z,5.43
2023-01-17T09:50:27.245Z,5.59
2023-01-17T10:05:50.584Z,5.78
2023-01-17T10:21:06.789Z,6.27
2023-01-17T10:36:15.665Z,6.75
2023-01-17T10:51:22.704Z,6.58
2023-01-17T11:06:27.936Z,6.60
2023-01-17T11:21:31.774Z,6.55
2023-01-17T11:36:37.165Z,6.36
2023-01-17T11:51:41.963Z,6.34
2023-01-17T12:06:57.560Z,6.43
2023-01-17T12:22:08.086Z,6.24
2023-01-17T12:37:44.515Z,6.23
2023-01-17T12:52:55.958Z,6.02
2023-01-17T13:08:20.183Z,5.92
2023-01-17T13:23:30.691Z,5.73
2023-01-17T13:38:42.051Z,5.60
2023-01-17T13:53:47.350Z,5.45
2023-01-17T14:08:52.754Z,5.39
2023-01-17T14:24:00.169Z,5.25
2023-01-17T14:39:04.675Z,5.06
2023-01-17T14:54:19.046Z,4.87
2023-01-17T15:09:24.608Z,4.68
2023-01-17T15:24:29.904Z,4.55
2023-01-17T15:39:40.518Z,4.43
2023-01-17T15:54:47.677Z,4.30
2023-01-17T16:09:51.930Z,7.35
2023-01-17T16:24:56.250Z,10.56
2023-01-17T16:40:01.533Z,8.86
2023-01-17T16:55:06.527Z,5.11
2023-01-17T17:10:11.171Z,3.50
2023-01-17T17:25:16.265Z,2.68
2023-01-17T17:40:21.271Z,2.22
2023-01-17T17:55:25.263Z,1.89
2023-01-17T18:10:29.897Z,1.55
2023-01-17T18:25:36.439Z,1.30
2023-01-17T18:40:40.831Z,1.04
2023-01-17T18:55:46.448Z,3.64
2023-01-17T19:10:51.314Z,7.36
2023-01-17T19:25:55.542Z,8.55
2023-01-17T19:41:10.314Z,6.03
2023-01-17T19:56:15.119Z,2.28
2023-01-17T20:11:20.475Z,0.83
2023-01-17T20:26:25.614Z,0.11
2023-01-17T20:41:31.474Z,-0.19
2023-01-17T20:56:38.088Z,-0.38
2023-01-17T21:11:42.645Z,-0.52
2023-01-17T21:26:46.709Z,-0.56
2023-01-17T21:41:51.369Z,-0.61
2023-01-17T21:57:13.895Z,-0.68
2023-01-17T22:12:19.462Z,2.71
2023-01-17T22:27:23.432Z,6.08
2023-01-17T22:42:28.413Z,7.21
2023-01-17T22:57:32.703Z,4.94
2023-01-17T23:12:37.020Z,1.23
2023-01-17T23:28:00.385Z,-0.32
2023-01-17T23:43:23.511Z,-0.70
2023-01-17T23:58:27.472Z,-0.76
